createdAt,value
2023-04-07T00:02:04.364Z,7.20
2023-04-07T00:04:31.162Z,7.47
2023-04-07T00:06:59.443Z,7.03
2023-04-07T00:09:26.072Z,7.38
2023-04-07T00:11:52.998Z,8.00
2023-04-07T00:14:19.877Z,7.35
2023-04-07T00:16:46.489Z,7.60
2023-04-07T00:19:13.137Z,7.38
2023-04-07T00:21:39.738Z,7.82
2023-04-07T00:24:07.943Z,8.05
2023-04-07T00:26:34.491Z,8.15
2023-04-07T00:29:02.358Z,8.63
2023-04-07T00:31:28.986Z,7.28
2023-04-07T00:33:55.903Z,7.43
2023-04-07T00:36:22.904Z,8.40
2023-04-07T00:38:49.466Z,7.65
2023-04-07T00:41:17.908Z,7.80
2023-04-07T00:43:44.591Z,8.38
2023-04-07T00:46:11.636Z,8.10
2023-04-07T00:48:38.295Z,7.72
2023-04-07T00:51:07.506Z,7.68
2023-04-07T00:53:34.257Z,7.80
2023-04-07T00:56:01.044Z,9.57
2023-04-07T00:58:29.034Z,7.93
2023-04-07T01:01:03.853Z,8.13
2023-04-07T01:03:38.141Z,7.22
2023-04-07T01:06:07.965Z,7.53
2023-04-07T01:08:42.710Z,7.38
2023-04-07T01:11:18.820Z,8.07
2023-04-07T01:13:50.756Z,7.35
2023-04-07T01:16:31.905Z,7.75
2023-04-07T01:19:04.228Z,7.68
2023-04-07T01:24:19.485Z,8.13
2023-04-07T01:26:47.211Z,7.45
2023-04-07T01:29:37.557Z,8.25
2023-04-07T01:32:06.453Z,7.47
2023-04-07T01:34:34.180Z,7.55
2023-04-07T01:37:02.521Z,8.10
2023-04-07T01:39:29.589Z,8.43
2023-04-07T01:41:57.874Z,8.15
2023-04-07T01:44:26.079Z,8.02
2023-04-07T01:46:55.366Z,8.13
2023-04-07T01:49:24.508Z,8.43
2023-04-07T01:51:51.829Z,7.95
2023-04-07T01:54:18.694Z,8.25
2023-04-07T01:56:45.491Z,7.88
2023-04-07T01:59:12.556Z,7.80
2023-04-07T02:01:39.963Z,7.90
2023-04-07T02:04:12.713Z,7.47
2023-04-07T02:06:43.070Z,8.98
2023-04-07T02:09:13.079Z,8.45
2023-04-07T02:11:40.747Z,8.20
2023-04-07T02:14:09.004Z,7.70
2023-04-07T02:16:50.740Z,8.10
2023-04-07T02:19:19.012Z,8.30
2023-04-07T02:21:46.974Z,8.05
2023-04-07T02:24:19.690Z,8.63
2023-04-07T02:26:46.504Z,8.73
2023-04-07T02:29:13.410Z,7.90
2023-04-07T02:31:40.104Z,8.52
2023-04-07T02:34:06.701Z,7.82
2023-04-07T02:36:34.747Z,8.90
2023-04-07T02:39:01.285Z,8.57
2023-04-07T02:41:27.877Z,8.45
2023-04-07T02:43:54.748Z,8.55
2023-04-07T02:46:21.800Z,8.75
2023-04-07T02:48:48.681Z,8.05
2023-04-07T02:51:15.250Z,8.38
2023-04-07T02:53:43.266Z,8.52
2023-04-07T02:56:10.683Z,8.00
2023-04-07T02:58:37.402Z,8.45
2023-04-07T03:01:04.587Z,7.72
2023-04-07T03:03:33.501Z,7.80
2023-04-07T03:06:07.225Z,7.68
2023-04-07T03:08:37.783Z,8.15
2023-04-07T03:11:06.543Z,8.25
2023-04-07T03:13:33.871Z,7.60
2023-04-07T03:16:00.494Z,8.50
2023-04-07T03:18:32.917Z,8.00
2023-04-07T03:21:00.963Z,7.57
2023-04-07T03:23:28.187Z,7.28
2023-04-07T03:25:57.180Z,8.48
2023-04-07T03:28:28.847Z,7.57
2023-04-07T03:30:55.443Z,8.05
2023-04-07T03:33:22.122Z,8.18
2023-04-07T03:35:48.805Z,8.30
2023-04-07T03:38:15.474Z,7.53
2023-04-07T03:40:42.661Z,7.68
2023-04-07T03:43:09.254Z,7.47
2023-04-07T03:45:37.494Z,7.90
2023-04-07T03:48:04.690Z,7.40
2023-04-07T03:50:32.282Z,6.95
2023-04-07T03:53:13.336Z,8.05
2023-04-07T03:55:40.277Z,7.60
2023-04-07T03:58:14.165Z,8.18
2023-04-07T04:00:42.216Z,8.05
2023-04-07T04:03:11.566Z,7.53
2023-04-07T04:05:47.512Z,7.82
2023-04-07T04:08:20.689Z,8.73
2023-04-07T04:10:47.426Z,7.90
2023-04-07T04:13:13.980Z,8.02
2023-04-07T04:15:43.874Z,7.47
2023-04-07T04:18:14.567Z,8.30
2023-04-07T04:20:41.186Z,8.20
2023-04-07T04:23:08.452Z,9.38
2023-04-07T04:25:35.975Z,9.55
2023-04-07T04:28:06.345Z,10.82
2023-04-07T04:30:32.986Z,9.65
2023-04-07T04:33:04.846Z,9.85
2023-04-07T04:35:41.066Z,10.20
2023-04-07T04:38:11.245Z,10.93
2023-04-07T04:40:42.208Z,11.02
2023-04-07T04:43:09.094Z,10.85
2023-04-07T04:45:37.544Z,11.43
2023-04-07T04:48:07.622Z,12.02
2023-04-07T04:50:34.236Z,11.43
2023-04-07T04:53:05.182Z,11.27
2023-04-07T04:55:31.816Z,11.50
2023-04-07T04:57:59.195Z,11.15
2023-04-07T05:00:35.933Z,11.60
2023-04-07T05:03:07.433Z,12.82
2023-04-07T05:05:38.060Z,11.43
2023-04-07T05:08:06.031Z,10.93
2023-04-07T05:10:38.796Z,9.68
2023-04-07T05:15:36.145Z,10.20
2023-04-07T05:18:05.139Z,10.10
2023-04-07T05:20:33.094Z,12.23
2023-04-07T05:22:59.925Z,9.88
2023-04-07T05:25:32.069Z,12.00
2023-04-07T05:28:02.781Z,12.27
2023-04-07T05:30:29.401Z,16.52
2023-04-07T05:32:56.333Z,12.70
2023-04-07T05:35:44.165Z,9.88
2023-04-07T05:38:10.827Z,10.27
2023-04-07T05:40:38.316Z,10.50
2023-04-07T05:43:07.540Z,10.93
2023-04-07T05:45:35.118Z,11.35
2023-04-07T05:48:01.965Z,11.57
2023-04-07T05:50:38.104Z,10.57
2023-04-07T05:53:09.972Z,10.27
2023-04-07T05:55:36.670Z,10.38
2023-04-07T05:58:06.560Z,10.75
2023-04-07T06:00:33.795Z,12.50
2023-04-07T06:03:08.725Z,11.80
2023-04-07T06:05:47.269Z,12.02
2023-04-07T06:08:15.668Z,11.85
2023-04-07T06:10:42.196Z,10.73
2023-04-07T06:13:08.957Z,11.80
2023-04-07T06:15:35.663Z,11.73
2023-04-07T06:18:03.320Z,10.68
2023-04-07T06:20:29.878Z,11.20
2023-04-07T06:22:57.260Z,11.35
2023-04-07T06:25:25.106Z,11.35
2023-04-07T06:27:53.856Z,11.20
2023-04-07T06:30:22.280Z,10.60
2023-04-07T06:32:49.474Z,11.38
2023-04-07T06:35:16.966Z,11.60
2023-04-07T06:37:43.596Z,10.50
2023-04-07T06:40:10.184Z,12.00
2023-04-07T06:42:38.199Z,10.88
2023-04-07T06:45:11.542Z,10.70
2023-04-07T06:47:38.198Z,9.00
2023-04-07T06:50:05.712Z,9.60
2023-04-07T06:52:32.342Z,9.88
2023-04-07T06:54:58.967Z,9.60
2023-04-07T06:57:25.551Z,10.13
2023-04-07T06:59:53.504Z,8.88
2023-04-07T07:02:20.519Z,9.23
2023-04-07T07:04:47.246Z,8.45
2023-04-07T07:07:14.120Z,8.73
2023-04-07T07:09:40.701Z,8.43
2023-04-07T07:12:07.465Z,7.57
2023-04-07T07:14:34.045Z,6.63
2023-04-07T07:17:02.041Z,7.53
2023-04-07T07:19:28.603Z,7.97
2023-04-07T07:21:55.427Z,6.93
2023-04-07T07:24:21.992Z,6.97
2023-04-07T07:26:48.784Z,6.03
2023-04-07T07:29:15.352Z,7.25
2023-04-07T07:31:42.409Z,6.45
2023-04-07T07:34:10.251Z,6.45
2023-04-07T07:36:36.836Z,6.03
2023-04-07T07:39:03.381Z,5.45
2023-04-07T07:41:29.944Z,6.72
2023-04-07T07:43:56.579Z,6.10
2023-04-07T07:46:23.433Z,5.47
2023-04-07T07:48:50.184Z,5.40
2023-04-07T07:51:18.169Z,5.40
2023-04-07T07:53:45.010Z,5.40
2023-04-07T07:56:11.709Z,5.53
2023-04-07T07:58:38.356Z,5.35
2023-04-07T08:01:05.006Z,5.15
2023-04-07T08:03:31.840Z,4.65
2023-04-07T08:05:58.635Z,4.30
2023-04-07T08:08:26.503Z,4.03
2023-04-07T08:10:53.359Z,4.15
2023-04-07T08:13:20.101Z,4.13
2023-04-07T08:15:46.722Z,3.72
2023-04-07T08:18:13.338Z,4.50
2023-04-07T08:20:41.804Z,4.00
2023-04-07T08:23:08.666Z,3.80
2023-04-07T08:25:36.661Z,3.95
2023-04-07T08:28:03.247Z,4.00
2023-04-07T08:30:29.926Z,3.50
2023-04-07T08:32:56.894Z,3.80
2023-04-07T08:35:23.703Z,3.03
2023-04-07T08:37:50.297Z,3.20
2023-04-07T08:40:17.356Z,3.65
2023-04-07T08:42:47.672Z,3.65
2023-04-07T08:45:16.884Z,3.25
2023-04-07T08:47:46.506Z,3.78
2023-04-07T08:50:16.762Z,3.45
2023-04-07T08:52:45.545Z,3.22
2023-04-07T08:55:12.233Z,3.03
2023-04-07T08:57:39.661Z,3.13
2023-04-07T09:00:09.356Z,3.20
2023-04-07T09:02:37.368Z,3.22
2023-04-07T09:05:07.041Z,3.50
2023-04-07T09:07:34.652Z,3.83
2023-04-07T09:10:01.778Z,3.88
2023-04-07T09:12:29.532Z,3.55
2023-04-07T09:14:56.472Z,3.97
2023-04-07T09:17:25.520Z,3.42
2023-04-07T09:19:53.151Z,3.72
2023-04-07T09:22:35.008Z,3.60
2023-04-07T09:25:10.477Z,4.13
2023-04-07T09:27:37.186Z,3.88
2023-04-07T09:30:11.845Z,3.95
2023-04-07T09:32:39.916Z,4.47
2023-04-07T09:35:07.311Z,4.13
2023-04-07T09:37:34.714Z,4.38
2023-04-07T09:40:01.353Z,11.98
2023-04-07T09:42:28.390Z,8.43
2023-04-07T09:44:55.008Z,5.32
2023-04-07T09:47:26.387Z,5.35
2023-04-07T09:49:55.238Z,4.18
2023-04-07T09:52:25.327Z,4.80
2023-04-07T09:54:53.044Z,4.63
2023-04-07T09:57:21.260Z,4.63
2023-04-07T09:59:48.581Z,4.63
2023-04-07T10:02:15.298Z,4.40
2023-04-07T10:04:42.045Z,4.88
2023-04-07T10:07:10.136Z,4.30
2023-04-07T10:09:36.722Z,5.18
2023-04-07T10:12:04.084Z,4.97
2023-04-07T10:14:32.028Z,8.63
2023-04-07T10:17:00.358Z,6.95
2023-04-07T10:19:31.357Z,7.10
2023-04-07T10:21:59.540Z,5.60
2023-04-07T10:24:44.046Z,4.97
2023-04-07T10:27:16.396Z,4.45
2023-04-07T10:29:46.714Z,4.78
2023-04-07T10:32:13.765Z,5.47
2023-04-07T10:34:56.606Z,5.18
2023-04-07T10:37:24.273Z,4.63
2023-04-07T10:40:12.887Z,6.63
2023-04-07T10:42:46.194Z,8.05
2023-04-07T10:45:13.433Z,8.40
2023-04-07T10:48:10.955Z,8.13
2023-04-07T10:50:37.789Z,5.85
2023-04-07T10:53:09.125Z,5.82
2023-04-07T10:55:38.815Z,5.55
2023-04-07T10:58:23.100Z,6.18
2023-04-07T11:01:18.429Z,6.53
2023-04-07T11:03:59.360Z,6.45
2023-04-07T11:06:26.092Z,5.63
2023-04-07T11:08:52.651Z,4.43
2023-04-07T11:11:36.420Z,4.82
2023-04-07T11:14:03.033Z,4.47
2023-04-07T11:16:36.794Z,6.22
2023-04-07T11:19:03.453Z,7.35
2023-04-07T11:21:29.985Z,6.38
2023-04-07T11:23:56.663Z,5.18
2023-04-07T11:26:24.657Z,5.93
2023-04-07T11:28:53.314Z,5.78
2023-04-07T11:31:22.066Z,5.85
2023-04-07T11:33:53.175Z,5.05
2023-04-07T11:36:27.110Z,4.15
2023-04-07T11:38:54.021Z,5.70
2023-04-07T11:41:20.517Z,4.85
2023-04-07T11:43:48.706Z,5.28
2023-04-07T11:46:16.933Z,4.88
2023-04-07T11:48:44.904Z,5.22
2023-04-07T11:51:18.732Z,6.18
2023-04-07T11:53:46.146Z,10.90
2023-04-07T11:56:14.514Z,5.63
2023-04-07T11:58:48.960Z,5.45
2023-04-07T12:01:15.710Z,6.20
2023-04-07T12:03:56.410Z,5.13
2023-04-07T12:06:27.930Z,4.78
2023-04-07T12:08:54.577Z,5.30
2023-04-07T12:11:21.132Z,6.07
2023-04-07T12:13:49.275Z,5.55
2023-04-07T12:16:16.250Z,5.50
2023-04-07T12:18:42.927Z,5.90
2023-04-07T12:21:09.516Z,5.97
2023-04-07T12:23:36.189Z,6.53
2023-04-07T12:26:02.759Z,5.68
2023-04-07T12:28:29.326Z,5.75
2023-04-07T12:30:57.194Z,6.25
2023-04-07T12:33:23.954Z,6.65
2023-04-07T12:35:50.521Z,7.80
2023-04-07T12:38:17.163Z,6.38
2023-04-07T12:40:43.894Z,5.75
2023-04-07T12:43:10.797Z,6.25
2023-04-07T12:45:37.327Z,6.32
2023-04-07T12:48:05.614Z,5.70
2023-04-07T12:50:32.254Z,6.18
2023-04-07T12:52:58.887Z,6.57
2023-04-07T12:55:25.649Z,6.45
2023-04-07T12:57:52.329Z,6.65
2023-04-07T13:00:18.907Z,6.57
2023-04-07T13:02:45.922Z,6.78
2023-04-07T13:05:13.942Z,6.57
2023-04-07T13:07:40.547Z,6.80
2023-04-07T13:10:08.401Z,6.78
2023-04-07T13:12:35.296Z,6.93
2023-04-07T13:15:02.647Z,6.65
2023-04-07T13:17:29.384Z,6.65
2023-04-07T13:19:56.222Z,6.82
2023-04-07T13:22:24.778Z,6.75
2023-04-07T13:24:51.463Z,6.85
2023-04-07T13:27:18.026Z,6.45
2023-04-07T13:29:44.576Z,7.28
2023-04-07T13:32:11.897Z,6.55
2023-04-07T13:34:38.879Z,7.00
2023-04-07T13:37:06.395Z,6.70
2023-04-07T13:39:34.368Z,6.53
2023-04-07T13:42:01.065Z,6.85
2023-04-07T13:44:28.732Z,6.90
2023-04-07T13:46:56.255Z,7.28
2023-04-07T13:49:22.980Z,7.15
2023-04-07T13:51:49.632Z,6.75
2023-04-07T13:54:16.471Z,7.70
2023-04-07T13:56:44.410Z,8.40
2023-04-07T13:59:11.109Z,8.40
2023-04-07T14:01:37.788Z,7.35
2023-04-07T14:04:04.820Z,6.93
2023-04-07T14:06:31.469Z,7.43
2023-04-07T14:08:58.388Z,7.22
2023-04-07T14:11:25.100Z,7.20
2023-04-07T14:13:53.129Z,7.05
2023-04-07T14:16:20.610Z,8.40
2023-04-07T14:18:47.434Z,7.47
2023-04-07T14:21:13.989Z,7.65
2023-04-07T14:23:40.660Z,7.20
2023-04-07T14:26:09.728Z,7.05
2023-04-07T14:28:36.235Z,7.85
2023-04-07T14:31:04.420Z,8.05
2023-04-07T14:33:31.017Z,7.50
2023-04-07T14:35:57.839Z,7.43
2023-04-07T14:38:24.494Z,7.22
2023-04-07T14:40:51.223Z,7.10
2023-04-07T14:43:18.079Z,7.32
2023-04-07T14:45:44.661Z,7.90
2023-04-07T14:48:12.627Z,7.10
2023-04-07T14:50:39.304Z,6.57
2023-04-07T14:53:05.867Z,7.30
2023-04-07T14:55:32.596Z,7.50
2023-04-07T14:57:59.120Z,7.75
2023-04-07T15:00:25.839Z,7.45
2023-04-07T15:02:52.614Z,7.47
2023-04-07T15:05:20.857Z,8.02
2023-04-07T15:07:47.424Z,8.10
2023-04-07T15:10:15.266Z,7.45
2023-04-07T15:12:41.816Z,9.10
2023-04-07T15:15:08.890Z,7.57
2023-04-07T15:17:44.003Z,8.32
2023-04-07T15:20:11.707Z,8.20
2023-04-07T15:22:39.817Z,9.68
2023-04-07T15:25:06.845Z,7.72
2023-04-07T15:27:33.401Z,8.25
2023-04-07T15:30:00.044Z,8.73
2023-04-07T15:32:26.605Z,7.75
2023-04-07T15:34:53.241Z,7.15
2023-04-07T15:37:19.780Z,7.85
2023-04-07T15:39:48.063Z,11.10
2023-04-07T15:42:14.604Z,9.82
2023-04-07T15:44:41.202Z,6.60
2023-04-07T15:47:07.965Z,7.35
2023-04-07T15:49:34.929Z,7.10
2023-04-07T15:52:03.892Z,6.55
2023-04-07T15:54:30.801Z,6.57
2023-04-07T15:56:58.709Z,6.45
2023-04-07T15:59:25.405Z,6.70
2023-04-07T16:01:53.297Z,6.35
2023-04-07T16:04:20.018Z,6.53
2023-04-07T16:06:46.562Z,6.78
2023-04-07T16:09:13.219Z,6.65
2023-04-07T16:11:39.764Z,7.30
2023-04-07T16:14:09.194Z,6.72
2023-04-07T16:16:36.041Z,6.63
2023-04-07T16:19:02.660Z,6.85
2023-04-07T16:21:29.206Z,6.72
2023-04-07T16:23:55.741Z,7.15
2023-04-07T16:26:22.279Z,6.20
2023-04-07T16:28:48.810Z,6.03
2023-04-07T16:31:16.676Z,6.20
2023-04-07T16:33:43.442Z,6.60
2023-04-07T16:36:10.021Z,6.78
2023-04-07T16:38:36.567Z,5.78
2023-04-07T16:41:04.406Z,6.22
2023-04-07T16:43:31.508Z,5.78
2023-04-07T16:45:58.042Z,6.05
2023-04-07T16:48:26.051Z,5.70
2023-04-07T16:50:52.604Z,6.25
2023-04-07T16:53:21.215Z,6.10
2023-04-07T16:55:48.343Z,5.85
2023-04-07T16:58:14.882Z,6.03
2023-04-07T17:00:41.396Z,6.72
2023-04-07T17:03:08.126Z,6.50
2023-04-07T17:05:36.087Z,6.30
2023-04-07T17:08:02.652Z,6.68
2023-04-07T17:10:29.183Z,6.07
2023-04-07T17:12:55.707Z,7.00
2023-04-07T17:15:22.841Z,6.65
2023-04-07T17:17:49.545Z,6.72
2023-04-07T17:20:16.168Z,7.95
2023-04-07T17:22:44.324Z,7.32
2023-04-07T17:25:11.408Z,6.20
2023-04-07T17:27:37.930Z,6.60
2023-04-07T17:30:05.378Z,6.40
2023-04-07T17:32:31.986Z,6.43
2023-04-07T17:34:58.518Z,6.53
2023-04-07T17:37:25.014Z,7.15
2023-04-07T17:39:52.869Z,7.53
2023-04-07T17:42:19.375Z,7.20
2023-04-07T17:44:45.865Z,8.68
2023-04-07T17:47:12.433Z,7.82
2023-04-07T17:49:39.045Z,7.07
2023-04-07T17:52:05.553Z,6.35
2023-04-07T17:54:32.108Z,6.18
2023-04-07T17:57:00.316Z,6.97
2023-04-07T17:59:26.856Z,7.15
2023-04-07T18:01:53.449Z,6.63
2023-04-07T18:04:20.573Z,7.25
2023-04-07T18:06:47.086Z,8.45
2023-04-07T18:09:13.610Z,7.30
2023-04-07T18:11:40.112Z,7.75
2023-04-07T18:14:07.980Z,8.18
2023-04-07T18:16:34.638Z,7.78
2023-04-07T18:19:01.196Z,7.43
2023-04-07T18:21:27.663Z,8.18
2023-04-07T18:23:54.199Z,7.72
2023-04-07T18:26:20.698Z,7.72
2023-04-07T18:28:47.191Z,6.90
2023-04-07T18:31:15.083Z,7.57
2023-04-07T18:33:41.774Z,6.55
2023-04-07T18:36:08.416Z,6.78
2023-04-07T18:38:35.584Z,7.55
2023-04-07T18:41:02.559Z,7.93
2023-04-07T18:43:29.064Z,7.72
2023-04-07T18:45:55.647Z,7.43
2023-04-07T18:48:23.592Z,6.15
2023-04-07T18:50:50.705Z,5.78
2023-04-07T18:53:17.215Z,5.68
2023-04-07T18:55:43.689Z,5.20
2023-04-07T18:58:10.199Z,5.25
2023-04-07T19:00:37.220Z,4.93
2023-04-07T19:03:04.017Z,5.45
2023-04-07T19:05:32.035Z,5.75
2023-04-07T19:07:58.577Z,5.10
2023-04-07T19:10:25.253Z,5.97
2023-04-07T19:12:51.736Z,6.28
2023-04-07T19:15:18.722Z,6.07
2023-04-07T19:17:45.264Z,5.75
2023-04-07T19:20:11.776Z,5.93
2023-04-07T19:22:39.638Z,6.43
2023-04-07T19:25:07.287Z,5.93
2023-04-07T19:27:33.788Z,5.68
2023-04-07T19:30:00.329Z,5.93
2023-04-07T19:32:26.854Z,6.70
2023-04-07T19:34:53.460Z,6.88
2023-04-07T19:37:20.018Z,7.50
2023-04-07T19:39:59.362Z,8.20
2023-04-07T19:42:29.240Z,9.05
2023-04-07T19:44:57.250Z,8.75
2023-04-07T19:47:24.859Z,9.73
2023-04-07T19:49:51.397Z,11.32
2023-04-07T19:52:18.104Z,9.15
2023-04-07T19:54:44.633Z,9.85
2023-04-07T19:57:12.587Z,9.07
2023-04-07T19:59:39.134Z,9.05
2023-04-07T20:02:05.938Z,8.65
2023-04-07T20:04:33.737Z,10.60
2023-04-07T20:07:00.629Z,9.50
2023-04-07T20:09:27.147Z,8.98
2023-04-07T20:11:53.835Z,9.85
2023-04-07T20:14:21.906Z,9.98
2023-04-07T20:16:48.551Z,18.77
2023-04-07T20:19:16.034Z,11.68
2023-04-07T20:21:42.743Z,9.80
2023-04-07T20:24:09.243Z,9.35
2023-04-07T20:26:35.857Z,9.98
2023-04-07T20:29:02.355Z,10.93
2023-04-07T20:31:30.312Z,10.20
2023-04-07T20:33:57.985Z,11.00
2023-04-07T20:36:24.602Z,10.48
2023-04-07T20:38:51.419Z,9.20
2023-04-07T20:41:18.422Z,9.07
2023-04-07T20:43:45.006Z,9.50
2023-04-07T20:46:11.911Z,9.40
2023-04-07T20:48:40.008Z,9.43
2023-04-07T20:51:06.616Z,9.55
2023-04-07T20:53:33.130Z,10.55
2023-04-07T20:55:59.705Z,9.05
2023-04-07T20:58:26.348Z,10.52
2023-04-07T21:00:55.655Z,9.25
2023-04-07T21:03:22.425Z,6.80
2023-04-07T21:05:50.570Z,7.15
2023-04-07T21:08:17.089Z,7.30
2023-04-07T21:10:43.704Z,7.80
2023-04-07T21:13:10.240Z,7.82
2023-04-07T21:15:36.860Z,7.28
2023-04-07T21:18:03.624Z,8.10
2023-04-07T21:20:30.630Z,9.20
2023-04-07T21:22:58.528Z,8.15
2023-04-07T21:25:25.118Z,8.95
2023-04-07T21:27:51.716Z,8.90
2023-04-07T21:30:18.369Z,9.82
2023-04-07T21:32:45.214Z,10.05
2023-04-07T21:35:11.822Z,10.93
2023-04-07T21:37:38.466Z,9.52
2023-04-07T21:40:08.358Z,9.20
2023-04-07T21:42:34.883Z,9.57
2023-04-07T21:45:01.522Z,9.38
2023-04-07T21:47:28.108Z,9.68
2023-04-07T21:49:54.667Z,8.90
2023-04-07T21:52:21.241Z,9.00
2023-04-07T21:54:47.776Z,8.85
2023-04-07T21:57:15.891Z,10.32
2023-04-07T21:59:42.592Z,9.85
2023-04-07T22:02:09.253Z,10.65
2023-04-07T22:04:36.007Z,10.13
2023-04-07T22:07:02.684Z,11.32
2023-04-07T22:09:29.385Z,9.88
2023-04-07T22:11:56.100Z,9.75
2023-04-07T22:14:24.021Z,11.05
2023-04-07T22:16:50.705Z,10.73
2023-04-07T22:19:17.254Z,10.52
2023-04-07T22:21:43.888Z,9.05
2023-04-07T22:24:10.429Z,10.60
2023-04-07T22:26:37.404Z,9.15
2023-04-07T22:29:03.923Z,10.25
2023-04-07T22:31:31.837Z,8.75
2023-04-07T22:33:58.421Z,9.43
2023-04-07T22:36:25.140Z,8.27
2023-04-07T22:38:51.935Z,10.07
2023-04-07T22:41:18.462Z,9.38
2023-04-07T22:43:44.998Z,9.93
2023-04-07T22:46:11.573Z,9.93
2023-04-07T22:48:39.459Z,9.75
2023-04-07T22:51:06.010Z,9.40
2023-04-07T22:53:32.557Z,8.80
2023-04-07T22:55:59.436Z,8.82
2023-04-07T22:58:25.966Z,8.50
2023-04-07T23:00:52.524Z,11.43
2023-04-07T23:03:19.150Z,9.20
2023-04-07T23:05:47.139Z,10.93
2023-04-07T23:08:13.688Z,11.48
2023-04-07T23:10:40.262Z,10.52
2023-04-07T23:13:06.783Z,9.70
2023-04-07T23:15:33.999Z,10.40
2023-04-07T23:18:00.611Z,9.55
2023-04-07T23:20:27.237Z,10.38
2023-04-07T23:22:55.194Z,9.57
2023-04-07T23:25:21.993Z,9.73
2023-04-07T23:27:48.475Z,9.43
2023-04-07T23:30:15.088Z,9.80
2023-04-07T23:32:41.621Z,10.93
2023-04-07T23:35:09.428Z,11.45
2023-04-07T23:37:36.010Z,12.10
2023-04-07T23:40:04.549Z,10.40
2023-04-07T23:42:31.122Z,11.18
2023-04-07T23:44:57.686Z,11.23
2023-04-07T23:47:24.354Z,11.48
2023-04-07T23:49:51.042Z,11.50
2023-04-07T23:52:17.585Z,11.43
2023-04-07T23:54:44.127Z,12.32
2023-04-07T23:57:11.993Z,11.23
2023-04-07T23:59:38.536Z,13.20
